Decoded Metar for UWUU (UFA in RUSSIA) (IATA:UFA) | Meteo·Mobile Aviation Weather
aviador You're here:

UWUU Decoded Metar

UFA in RUSSIA
Report Time2019-07-23 06:30:00
UTC Time2019-07-23 07:05:45
Flight Rules mvfr MVFR
Wind310° at 12 kt
W.Decomp.*RWY 32: 11.0 kt HW 4.7 kt LCW
Visibility9999 m
Phenomena:N/A
Clouds:Broken CB 025 Hf
Expected CloudBase > 2,400 ft AGL from Temp-Dew spread
Ceiling2,500 ft
Temp21°C (ISA +7)
Dew Point15°C (69% RH)
AAT18.3°C
QNH1010 hPa
Density Alt1,585 ft
Elevation449 ft
Report Wrong Elevation
Raw Report
UWUU 230630Z 31006MPS 280V340 9999 BKN025CB 21/15 Q1010
R32L/0///60 NOSIG=

Extra information for UWUU:More info

Metar Taf Metar & Taf Last 4 Metars F.Rules Stats Wind Profile Meteogram Temp Stats Airport Information Weather charts Add Link Nearby VenuesMetar ALERT Operation Metar Decoded Social comments